Skip Navigation Links Skip Navigation Links

Current Weather

Metropolitan Oakland Intl, Oakland, Calif.

For information only: do not use for flight planning or navigation.
Latest weather
Observation time Monday, October 18, 2021 11:53 PM PDT
Local time Tuesday, October 19, 2021 12:51 AM PDT
Flight conditions Visual Meteorological Conditions
Winds
Wind direction West-Northwest (300°)
Wind speed 8 mph
Visibility 10 mi.
Sky condition
Ceiling unlimited
Cloud layer few clouds 1,200 ft.
Cloud layer few clouds 5,000 ft.
Temperature 54°F
Dewpoint 47°F
Altimeter 30.06 in.Hg
Derived measurements
Relative humidity 77%
Density altitude -330 ft.
Sea-level pressure 30.06 in.Hg
Remarks
Automated weather observing station with precipitation discriminator.
METAR KOAK 190653Z 30007KT 10SM FEW012 FEW050 12/08 A3006 RMK AO2 SLP178 T01220083

Settings

Location code

InnerDrive.Weather 4.0.6770.0 Release CLR 4.0.30319.42000
Copyright ©2018 Inner Drive Technology. All rights reserved. Portions Copyright ©1986-2018 David Braverman.

Find weather

Site navigation


Skip Navigation Links

Place info

Page info

PayPal - The safer, easier way to pay online!

Return home.

Copyright ©2021 Inner Drive Technology. Purveyors of fine, hand-crafted computer software. Page printed 2021-10-19T07:51:07 UTC.